createdAt,value
2023-01-05T00:00:00.916Z,97859.59
2023-01-05T00:02:28.281Z,97880.88
2023-01-05T00:04:54.607Z,97948.16
2023-01-05T00:07:20.798Z,97979.38
2023-01-05T00:09:47.010Z,97998.50
2023-01-05T00:12:15.536Z,98033.47
2023-01-05T00:14:41.798Z,98078.69
2023-01-05T00:17:09.388Z,98115.63
2023-01-05T00:19:35.610Z,98147.19
2023-01-05T00:22:01.985Z,98176.59
2023-01-05T00:24:28.221Z,98211.78
2023-01-05T00:26:54.447Z,98216.66
2023-01-05T00:29:20.662Z,98217.41
2023-01-05T00:31:46.986Z,98219.66
2023-01-05T00:34:13.234Z,98218.09
2023-01-05T00:36:39.863Z,98195.38
2023-01-05T00:39:06.137Z,98155.47
2023-01-05T00:41:32.361Z,98137.91
2023-01-05T00:43:58.679Z,98117.78
2023-01-05T00:46:24.953Z,98058.63
2023-01-05T00:48:51.219Z,97984.94
2023-01-05T00:51:17.471Z,97877.25
2023-01-05T00:53:43.676Z,97826.75
2023-01-05T00:56:09.891Z,97765.81
2023-01-05T00:58:36.098Z,97717.16
2023-01-05T01:01:02.433Z,97697.13
2023-01-05T01:03:28.754Z,97698.06
2023-01-05T01:05:58.175Z,97707.53
2023-01-05T01:08:24.396Z,97751.88
2023-01-05T01:10:50.664Z,97826.22
2023-01-05T01:13:16.904Z,97866.63
2023-01-05T01:15:43.180Z,97920.00
2023-01-05T01:18:09.434Z,97954.69
2023-01-05T01:20:36.974Z,98037.63
2023-01-05T01:23:03.349Z,98079.06
2023-01-05T01:25:29.576Z,98110.34
2023-01-05T01:27:55.785Z,98168.63
2023-01-05T01:30:22.113Z,98305.69
2023-01-05T01:32:48.329Z,98451.84
2023-01-05T01:35:14.537Z,98526.91
2023-01-05T01:37:40.782Z,98601.78
2023-01-05T01:40:07.462Z,98651.53
2023-01-05T01:42:33.675Z,98689.50
2023-01-05T01:45:00.616Z,98729.09
2023-01-05T01:47:40.421Z,98757.47
2023-01-05T01:50:08.606Z,98788.66
2023-01-05T01:52:34.830Z,98814.94
2023-01-05T01:55:01.069Z,98836.50
2023-01-05T01:57:27.283Z,98855.75
2023-01-05T01:59:53.491Z,98861.22
2023-01-05T02:02:19.846Z,98888.75
2023-01-05T02:04:46.332Z,98888.78
2023-01-05T02:07:12.645Z,98916.56
2023-01-05T02:09:38.874Z,98924.84
2023-01-05T02:12:07.250Z,98932.34
2023-01-05T02:14:55.422Z,98937.53
2023-01-05T02:17:27.787Z,98944.34
2023-01-05T02:20:12.773Z,98963.28
2023-01-05T02:22:57.582Z,98974.19
2023-01-05T02:25:48.229Z,98992.09
2023-01-05T02:28:25.596Z,98999.91
2023-01-05T02:30:54.858Z,99005.63
2023-01-05T02:33:32.777Z,99022.50
2023-01-05T02:36:23.615Z,99041.47
2023-01-05T02:38:59.090Z,99066.94
2023-01-05T02:41:25.249Z,99077.84
2023-01-05T02:43:51.508Z,99076.53
2023-01-05T02:46:18.372Z,99092.66
2023-01-05T02:48:44.710Z,99101.47
2023-01-05T02:51:12.679Z,99111.34
2023-01-05T02:53:43.001Z,99109.28
2023-01-05T02:56:13.676Z,99110.84
2023-01-05T02:59:03.262Z,99117.84
2023-01-05T03:01:30.947Z,99107.44
2023-01-05T03:03:57.241Z,99114.22
2023-01-05T03:06:24.475Z,99129.53
2023-01-05T03:08:58.833Z,99136.81
2023-01-05T03:11:32.702Z,99147.69
2023-01-05T03:14:06.596Z,99160.22
2023-01-05T03:16:34.690Z,99187.75
2023-01-05T03:19:01.529Z,99184.59
2023-01-05T03:21:27.792Z,99205.63
2023-01-05T03:23:54.440Z,99200.19
2023-01-05T03:26:20.739Z,99190.06
2023-01-05T03:28:51.608Z,99187.47
2023-01-05T03:31:23.282Z,99207.75
2023-01-05T03:33:51.319Z,99205.16
2023-01-05T03:36:18.349Z,99216.56
2023-01-05T03:38:45.066Z,99212.16
2023-01-05T03:41:11.747Z,99219.97
2023-01-05T03:43:39.195Z,99211.13
2023-01-05T03:46:12.182Z,99204.88
2023-01-05T03:48:39.225Z,99208.00
2023-01-05T03:51:05.756Z,99224.59
2023-01-05T03:53:31.976Z,99241.75
2023-01-05T03:55:58.261Z,99254.50
2023-01-05T03:58:25.812Z,99277.88
2023-01-05T04:00:52.668Z,99293.97
2023-01-05T04:03:18.952Z,99311.91
2023-01-05T04:05:45.535Z,99328.50
2023-01-05T04:08:12.245Z,99364.16
2023-01-05T04:10:38.620Z,99353.22
2023-01-05T04:13:06.335Z,99372.44
2023-01-05T04:15:32.569Z,99386.72
2023-01-05T04:17:58.919Z,99387.78
2023-01-05T04:20:25.159Z,99385.44
2023-01-05T04:22:51.352Z,99389.06
2023-01-05T04:25:17.563Z,99384.91
2023-01-05T04:27:43.798Z,99400.53
2023-01-05T04:30:10.203Z,99408.63
2023-01-05T04:32:36.402Z,99384.16
2023-01-05T04:35:08.835Z,99391.19
2023-01-05T04:37:37.396Z,99388.91
2023-01-05T04:40:03.939Z,99353.50
2023-01-05T04:42:30.143Z,99345.97
2023-01-05T04:44:56.368Z,99301.31
2023-01-05T04:47:22.830Z,99246.22
2023-01-05T04:49:49.123Z,99194.22
2023-01-05T04:52:15.334Z,99143.06
2023-01-05T04:54:41.689Z,99154.50
2023-01-05T04:57:07.915Z,99196.31
2023-01-05T04:59:34.151Z,99248.81
2023-01-05T05:02:00.509Z,99288.56
2023-01-05T05:04:26.836Z,99325.47
2023-01-05T05:06:53.034Z,99339.75
2023-01-05T05:09:19.302Z,99345.75
2023-01-05T05:11:45.517Z,99353.28
2023-01-05T05:14:12.165Z,99355.84
2023-01-05T05:16:38.487Z,99389.09
2023-01-05T05:19:05.154Z,99379.25
2023-01-05T05:21:31.539Z,99382.88
2023-01-05T05:23:57.748Z,99378.22
2023-01-05T05:26:23.969Z,99386.53
2023-01-05T05:28:50.630Z,99400.03
2023-01-05T05:31:16.909Z,99405.47
2023-01-05T05:33:43.243Z,99434.84
2023-01-05T05:36:09.733Z,99437.75
2023-01-05T05:38:35.955Z,99433.78
2023-01-05T05:41:02.176Z,99456.13
2023-01-05T05:43:28.380Z,99468.34
2023-01-05T05:45:54.737Z,99465.50
2023-01-05T05:48:20.934Z,99457.97
2023-01-05T05:50:47.256Z,99473.84
2023-01-05T05:53:13.554Z,99487.03
2023-01-05T05:55:39.881Z,99515.16
2023-01-05T05:58:06.088Z,99493.09
2023-01-05T06:00:32.338Z,99495.69
2023-01-05T06:02:58.706Z,99487.31
2023-01-05T06:05:25.019Z,99488.16
2023-01-05T06:07:51.225Z,99496.97
2023-01-05T06:10:17.457Z,99494.84
2023-01-05T06:12:44.075Z,99502.19
2023-01-05T06:15:10.402Z,99491.25
2023-01-05T06:17:40.828Z,99502.66
2023-01-05T06:20:07.328Z,99508.91
2023-01-05T06:22:33.538Z,99502.47
2023-01-05T06:24:59.814Z,99508.66
2023-01-05T06:27:26.018Z,99517.19
2023-01-05T06:29:52.232Z,99518.22
2023-01-05T06:32:18.679Z,99536.50
2023-01-05T06:34:45.016Z,99526.88
2023-01-05T06:37:13.363Z,99531.22
2023-01-05T06:39:39.600Z,99544.50
2023-01-05T06:42:05.839Z,99557.97
2023-01-05T06:44:32.107Z,99570.03
2023-01-05T06:46:58.494Z,99553.91
2023-01-05T06:49:24.704Z,99569.19
2023-01-05T06:51:50.936Z,99560.63
2023-01-05T06:54:17.381Z,99573.56
2023-01-05T06:56:43.654Z,99590.25
2023-01-05T06:59:10.885Z,99582.16
2023-01-05T07:01:37.682Z,99597.06
2023-01-05T07:04:04.014Z,99583.03
2023-01-05T07:06:30.269Z,99579.59
2023-01-05T07:08:56.473Z,99589.50
2023-01-05T07:11:22.795Z,99598.91
2023-01-05T07:13:49.311Z,99584.84
2023-01-05T07:16:15.801Z,99605.66
2023-01-05T07:18:42.083Z,99571.34
2023-01-05T07:21:08.317Z,99580.44
2023-01-05T07:23:34.535Z,99589.09
2023-01-05T07:26:00.757Z,99588.84
2023-01-05T07:28:26.988Z,99588.31
2023-01-05T07:30:53.398Z,99576.53
2023-01-05T07:33:19.606Z,99617.94
2023-01-05T07:35:45.820Z,99623.34
2023-01-05T07:38:12.047Z,99634.84
2023-01-05T07:40:40.672Z,99635.88
2023-01-05T07:43:06.881Z,99637.22
2023-01-05T07:45:33.156Z,99631.50
2023-01-05T07:47:59.486Z,99633.91
2023-01-05T07:50:25.865Z,99623.13
2023-01-05T07:52:52.087Z,99650.22
2023-01-05T07:55:18.411Z,99633.34
2023-01-05T07:57:44.692Z,99633.66
2023-01-05T08:00:11.036Z,99616.66
2023-01-05T08:02:37.290Z,99608.13
2023-01-05T08:05:03.614Z,99592.53
2023-01-05T08:07:29.853Z,99571.50
2023-01-05T08:09:56.127Z,99529.31
2023-01-05T08:12:22.340Z,99542.34
2023-01-05T08:14:48.545Z,99528.28
2023-01-05T08:17:14.806Z,99531.41
2023-01-05T08:19:41.117Z,99552.63
2023-01-05T08:22:07.342Z,99568.47
2023-01-05T08:24:33.629Z,99594.66
2023-01-05T08:26:59.917Z,99617.94
2023-01-05T08:29:26.321Z,99649.81
2023-01-05T08:31:52.569Z,99667.59
2023-01-05T08:34:18.795Z,99671.63
2023-01-05T08:36:45.033Z,99698.81
2023-01-05T08:39:11.369Z,99714.16
2023-01-05T08:41:37.891Z,99719.28
2023-01-05T08:44:05.486Z,99728.75
2023-01-05T08:46:32.260Z,99771.81
2023-01-05T08:48:58.798Z,99785.97
2023-01-05T08:51:25.212Z,99792.13
2023-01-05T08:53:51.492Z,99830.16
2023-01-05T08:56:17.738Z,99858.69
2023-01-05T08:58:44.020Z,99876.81
2023-01-05T09:01:14.187Z,99887.06
2023-01-05T09:03:40.646Z,99907.91
2023-01-05T09:06:10.208Z,99935.22
2023-01-05T09:08:36.458Z,99924.47
2023-01-05T09:11:06.626Z,99926.66
2023-01-05T09:13:32.962Z,99914.59
2023-01-05T09:16:03.735Z,99938.06
2023-01-05T09:18:31.273Z,99969.59
2023-01-05T09:20:57.583Z,99996.97
2023-01-05T09:23:23.834Z,100014.22
2023-01-05T09:25:50.074Z,100016.13
2023-01-05T09:28:16.363Z,100027.91
2023-01-05T09:30:48.546Z,100055.75
2023-01-05T09:33:16.717Z,100070.28
2023-01-05T09:35:42.956Z,100058.81
2023-01-05T09:38:09.197Z,100074.13
2023-01-05T09:40:37.804Z,100044.16
2023-01-05T09:43:04.024Z,100020.47
2023-01-05T09:45:30.271Z,100018.63
2023-01-05T09:47:57.050Z,100041.69
2023-01-05T09:50:24.549Z,100036.19
2023-01-05T09:52:51.698Z,100044.88
2023-01-05T09:55:18.874Z,100022.31
2023-01-05T09:57:52.575Z,100008.34
2023-01-05T10:00:18.883Z,100047.66
2023-01-05T10:02:58.763Z,100053.44
2023-01-05T10:05:25.266Z,100053.00
2023-01-05T10:08:05.143Z,100070.13
2023-01-05T10:10:46.596Z,100093.63
2023-01-05T10:13:18.602Z,100065.66
2023-01-05T10:15:45.614Z,100066.47
2023-01-05T10:18:16.084Z,100066.69
2023-01-05T10:20:45.106Z,100096.50
2023-01-05T10:23:20.459Z,100102.13
2023-01-05T10:25:46.857Z,100109.09
2023-01-05T10:28:32.028Z,100118.25
2023-01-05T10:30:59.071Z,100128.84
2023-01-05T10:33:48.644Z,100124.66
2023-01-05T10:37:06.115Z,100137.00
2023-01-05T10:39:34.940Z,100150.06
2023-01-05T10:42:07.220Z,100116.06
2023-01-05T10:44:51.667Z,100110.09
2023-01-05T10:47:18.026Z,100139.94
2023-01-05T10:49:45.486Z,100127.78
2023-01-05T10:52:12.392Z,100104.72
2023-01-05T10:54:58.546Z,100082.41
2023-01-05T10:57:35.120Z,100074.50
2023-01-05T11:00:09.900Z,100089.81
2023-01-05T11:02:39.913Z,100101.94
2023-01-05T11:05:07.715Z,100123.09
2023-01-05T11:07:39.573Z,100132.44
2023-01-05T11:10:06.134Z,100141.19
2023-01-05T11:12:32.340Z,100147.59
2023-01-05T11:14:59.367Z,100140.75
2023-01-05T11:17:26.745Z,100152.50
2023-01-05T11:19:53.847Z,100180.34
2023-01-05T11:22:27.965Z,100198.00
2023-01-05T11:24:54.448Z,100219.94
2023-01-05T11:27:20.688Z,100219.38
2023-01-05T11:29:47.605Z,100233.09
2023-01-05T11:32:13.825Z,100213.03
2023-01-05T11:34:43.467Z,100222.38
2023-01-05T11:37:09.633Z,100211.03
2023-01-05T11:39:39.887Z,100192.91
2023-01-05T11:42:13.208Z,100202.63
2023-01-05T11:44:39.981Z,100209.72
2023-01-05T11:47:06.183Z,100214.09
2023-01-05T11:49:32.553Z,100195.53
2023-01-05T11:51:58.782Z,100198.13
2023-01-05T11:54:34.837Z,100210.72
2023-01-05T11:57:12.234Z,100206.47
2023-01-05T11:59:38.445Z,100178.00
2023-01-05T12:02:07.699Z,100199.72
2023-01-05T12:04:49.014Z,100211.03
2023-01-05T12:07:16.978Z,100200.88
2023-01-05T12:10:03.417Z,100206.84
2023-01-05T12:12:29.593Z,100233.91
2023-01-05T12:15:01.858Z,100214.78
2023-01-05T12:17:46.173Z,100218.16
2023-01-05T12:20:31.270Z,100245.75
2023-01-05T12:23:03.241Z,100221.06
2023-01-05T12:25:39.581Z,100226.91
2023-01-05T12:28:24.058Z,100242.34
2023-01-05T12:34:13.572Z,100252.66
2023-01-05T12:36:46.247Z,100272.94
2023-01-05T12:39:19.216Z,100271.56
2023-01-05T12:42:14.963Z,100313.13
2023-01-05T12:44:50.628Z,100322.69
2023-01-05T12:47:16.828Z,100345.97
2023-01-05T12:49:46.084Z,100351.50
2023-01-05T12:52:28.308Z,100361.06
2023-01-05T12:55:03.620Z,100363.88
2023-01-05T12:57:32.657Z,100372.00
2023-01-05T13:00:04.283Z,100367.47
2023-01-05T13:02:37.408Z,100348.56
2023-01-05T13:05:22.742Z,100381.22
2023-01-05T13:07:51.726Z,100387.59
2023-01-05T13:10:17.890Z,100412.47
2023-01-05T13:12:44.096Z,100403.75
2023-01-05T13:15:14.986Z,100398.38
2023-01-05T13:17:42.331Z,100402.75
2023-01-05T13:20:14.706Z,100413.91
2023-01-05T13:22:40.909Z,100431.22
2023-01-05T13:25:22.913Z,100450.13
2023-01-05T13:27:49.131Z,100462.28
2023-01-05T13:30:21.320Z,100476.59
2023-01-05T13:32:50.548Z,100492.94
2023-01-05T13:35:18.213Z,100490.94
2023-01-05T13:37:51.603Z,100524.38
2023-01-05T13:40:17.775Z,100530.22
2023-01-05T13:42:47.084Z,100539.19
2023-01-05T13:45:13.242Z,100548.91
2023-01-05T13:47:46.360Z,100544.56
2023-01-05T13:50:21.073Z,100558.50
2023-01-05T13:52:53.254Z,100562.06
2023-01-05T13:55:25.743Z,100587.34
2023-01-05T13:57:52.590Z,100594.72
2023-01-05T14:00:24.052Z,100599.88
2023-01-05T14:02:58.691Z,100612.63
2023-01-05T14:05:32.070Z,100632.72
2023-01-05T14:07:59.252Z,100589.97
2023-01-05T14:10:26.660Z,100600.72
2023-01-05T14:12:52.883Z,100586.00
2023-01-05T14:15:32.806Z,100561.69
2023-01-05T14:17:59.485Z,100556.31
2023-01-05T14:20:38.833Z,100579.41
2023-01-05T14:23:24.999Z,100585.38
2023-01-05T14:26:06.832Z,100578.81
2023-01-05T14:28:32.992Z,100575.88
2023-01-05T14:31:08.398Z,100593.56
2023-01-05T14:33:45.128Z,100638.72
2023-01-05T14:36:24.219Z,100652.06
2023-01-05T14:38:50.450Z,100670.94
2023-01-05T14:41:19.531Z,100688.47
2023-01-05T14:43:45.751Z,100690.06
2023-01-05T14:46:12.631Z,100710.94
2023-01-05T14:48:39.591Z,100724.25
2023-01-05T14:51:11.782Z,100756.28
2023-01-05T14:53:42.355Z,100753.31
2023-01-05T14:56:08.513Z,100758.28
2023-01-05T14:58:37.806Z,100752.72
2023-01-05T15:04:02.272Z,100769.81
2023-01-05T15:06:47.034Z,100769.03
2023-01-05T15:09:13.181Z,100776.78
2023-01-05T15:11:57.881Z,100787.91
2023-01-05T15:14:39.404Z,100792.88
2023-01-05T15:17:22.623Z,100777.94
2023-01-05T15:20:09.428Z,100787.47
2023-01-05T15:22:54.123Z,100789.28
2023-01-05T15:25:33.811Z,100790.31
2023-01-05T15:28:05.725Z,100786.72
2023-01-05T15:30:41.288Z,100787.13
2023-01-05T15:33:09.719Z,100782.91
2023-01-05T15:35:38.320Z,100789.50
2023-01-05T15:38:33.308Z,100773.75
2023-01-05T15:41:01.552Z,100765.22
2023-01-05T15:43:27.795Z,100759.66
2023-01-05T15:45:54.042Z,100758.69
2023-01-05T15:48:27.794Z,100729.03
2023-01-05T15:50:55.166Z,100731.81
2023-01-05T15:53:31.442Z,100732.81
2023-01-05T15:55:57.735Z,100738.34
2023-01-05T15:58:24.297Z,100756.69
2023-01-05T16:01:00.202Z,100758.66
2023-01-05T16:03:27.273Z,100758.06
2023-01-05T16:05:57.265Z,100767.59
2023-01-05T16:08:23.651Z,100783.53
2023-01-05T16:10:51.570Z,100800.03
2023-01-05T16:13:18.835Z,100805.59
2023-01-05T16:15:50.974Z,100822.50
2023-01-05T16:18:18.168Z,100819.09
2023-01-05T16:20:44.406Z,100828.47
2023-01-05T16:23:12.829Z,100821.84
2023-01-05T16:25:40.299Z,100818.47
2023-01-05T16:28:08.207Z,100805.13
2023-01-05T16:30:35.459Z,100806.13
2023-01-05T16:33:02.749Z,100798.59
2023-01-05T16:35:30.126Z,100781.69
2023-01-05T16:38:12.195Z,100774.72
2023-01-05T16:40:50.476Z,100770.94
2023-01-05T16:43:21.009Z,100763.19
2023-01-05T16:45:47.264Z,100756.22
2023-01-05T16:48:32.349Z,100755.25
2023-01-05T16:50:58.624Z,100744.47
2023-01-05T16:53:25.447Z,100741.72
2023-01-05T16:55:53.503Z,100746.09
2023-01-05T16:58:28.940Z,100731.38
2023-01-05T17:01:14.156Z,100741.53
2023-01-05T17:03:48.583Z,100724.41
2023-01-05T17:06:22.334Z,100714.28
2023-01-05T17:08:48.530Z,100710.50
2023-01-05T17:11:14.767Z,100711.69
2023-01-05T17:13:42.417Z,100701.50
2023-01-05T17:16:11.982Z,100712.28
2023-01-05T17:18:38.202Z,100715.81
2023-01-05T17:21:04.660Z,100709.72
2023-01-05T17:23:35.355Z,100705.50
2023-01-05T17:26:05.987Z,100708.50
2023-01-05T17:28:32.212Z,100706.88
2023-01-05T17:30:58.428Z,100706.66
2023-01-05T17:33:24.671Z,100702.91
2023-01-05T17:35:50.931Z,100689.56
2023-01-05T17:38:17.196Z,100684.38
2023-01-05T17:40:43.402Z,100687.16
2023-01-05T17:43:09.648Z,100688.34
2023-01-05T17:45:37.309Z,100689.94
2023-01-05T17:48:03.569Z,100698.47
2023-01-05T17:53:01.967Z,100713.00
2023-01-05T17:55:28.470Z,100716.19
2023-01-05T17:57:54.713Z,100718.78
2023-01-05T18:00:22.198Z,100724.56
2023-01-05T18:02:49.287Z,100726.16
2023-01-05T18:05:15.691Z,100717.19
2023-01-05T18:07:41.913Z,100707.03
2023-01-05T18:15:07.534Z,100727.34
2023-01-05T18:17:33.768Z,100723.16
2023-01-05T18:19:59.963Z,100725.53
2023-01-05T18:22:26.174Z,100723.31
2023-01-05T18:24:52.407Z,100733.88
2023-01-05T18:27:18.639Z,100734.47
2023-01-05T18:29:44.847Z,100737.69
2023-01-05T18:32:11.072Z,100735.69
2023-01-05T18:34:37.275Z,100727.31
2023-01-05T18:37:06.569Z,100734.09
2023-01-05T18:39:36.876Z,100727.75
2023-01-05T18:42:03.094Z,100734.31
2023-01-05T18:44:29.322Z,100725.72
2023-01-05T18:46:55.538Z,100713.78
2023-01-05T18:49:21.761Z,100718.41
2023-01-05T18:51:49.555Z,100719.00
2023-01-05T18:54:15.764Z,100726.16
2023-01-05T18:56:41.967Z,100723.53
2023-01-05T18:59:08.627Z,100731.72
2023-01-05T19:01:34.895Z,100729.53
2023-01-05T19:04:01.152Z,100729.72
2023-01-05T19:06:27.416Z,100724.56
2023-01-05T19:08:53.675Z,100722.59
2023-01-05T19:11:20.826Z,100722.16
2023-01-05T19:13:47.032Z,100707.31
2023-01-05T19:16:13.322Z,100686.19
2023-01-05T19:18:39.572Z,100702.94
2023-01-05T19:21:05.785Z,100710.06
2023-01-05T19:23:32.031Z,100707.88
2023-01-05T19:26:01.897Z,100705.28
2023-01-05T19:28:31.084Z,100703.50
2023-01-05T19:31:23.886Z,100702.25
2023-01-05T19:33:50.252Z,100703.84
2023-01-05T19:36:17.671Z,100710.59
2023-01-05T19:38:44.103Z,100699.22
2023-01-05T19:41:11.315Z,100684.47
2023-01-05T19:43:37.611Z,100678.13
2023-01-05T19:46:04.829Z,100683.16
2023-01-05T19:48:32.101Z,100676.28
2023-01-05T19:50:59.005Z,100681.56
2023-01-05T19:53:25.320Z,100686.94
2023-01-05T19:55:51.707Z,100685.38
2023-01-05T19:58:29.455Z,100667.09
2023-01-05T20:00:55.660Z,100670.19
2023-01-05T20:03:21.948Z,100674.31
2023-01-05T20:05:48.180Z,100672.91
2023-01-05T20:08:14.393Z,100673.28
2023-01-05T20:10:40.612Z,100674.88
2023-01-05T20:13:07.052Z,100676.09
2023-01-05T20:15:34.079Z,100679.63
2023-01-05T20:18:00.313Z,100678.53
2023-01-05T20:20:26.521Z,100679.50
2023-01-05T20:22:52.784Z,100675.34
2023-01-05T20:25:19.050Z,100679.78
2023-01-05T20:27:45.279Z,100684.84
2023-01-05T20:30:11.900Z,100689.03
2023-01-05T20:32:38.138Z,100680.06
2023-01-05T20:35:04.504Z,100673.53
2023-01-05T20:37:31.474Z,100679.31
2023-01-05T20:39:58.636Z,100678.31
2023-01-05T20:42:25.242Z,100682.28
2023-01-05T20:44:51.452Z,100680.31
2023-01-05T20:47:17.746Z,100681.84
2023-01-05T20:49:44.211Z,100678.03
2023-01-05T20:52:10.867Z,100686.56
2023-01-05T20:54:37.269Z,100683.63
2023-01-05T20:57:03.503Z,100692.53
2023-01-05T20:59:30.077Z,100678.41
2023-01-05T21:01:56.575Z,100675.97
2023-01-05T21:04:22.938Z,100669.28
2023-01-05T21:06:49.577Z,100668.47
2023-01-05T21:09:15.834Z,100682.59
2023-01-05T21:11:42.107Z,100669.59
2023-01-05T21:14:08.486Z,100689.84
2023-01-05T21:16:38.116Z,100698.66
2023-01-05T21:19:04.708Z,100709.31
2023-01-05T21:21:30.931Z,100715.81
2023-01-05T21:23:57.222Z,100726.91
2023-01-05T21:26:23.451Z,100725.94
2023-01-05T21:28:50.351Z,100725.03
2023-01-05T21:31:17.301Z,100716.88
2023-01-05T21:33:43.556Z,100714.81
2023-01-05T21:36:13.951Z,100709.66
2023-01-05T21:39:01.883Z,100712.78
2023-01-05T21:41:26.405Z,100702.69
2023-01-05T21:43:52.628Z,100692.13
2023-01-05T21:46:18.825Z,100706.47
2023-01-05T21:48:45.059Z,100718.38
2023-01-05T21:51:11.263Z,100733.56
2023-01-05T21:53:37.488Z,100732.22
2023-01-05T21:56:10.172Z,100729.16
2023-01-05T21:58:36.378Z,100732.16
2023-01-05T22:01:02.597Z,100728.19
2023-01-05T22:03:29.567Z,100724.38
2023-01-05T22:05:55.871Z,100724.00
2023-01-05T22:08:22.090Z,100728.59
2023-01-05T22:10:52.952Z,100708.84
2023-01-05T22:13:19.202Z,100693.06
2023-01-05T22:15:45.408Z,100690.53
2023-01-05T22:18:11.754Z,100688.47
2023-01-05T22:20:37.965Z,100686.47
2023-01-05T22:23:04.178Z,100684.69
2023-01-05T22:25:30.384Z,100679.34
2023-01-05T22:27:56.601Z,100661.41
2023-01-05T22:30:22.824Z,100651.13
2023-01-05T22:32:49.054Z,100639.84
2023-01-05T22:35:15.285Z,100625.75
2023-01-05T22:37:41.483Z,100619.59
2023-01-05T22:40:08.158Z,100611.69
2023-01-05T22:42:34.387Z,100600.88
2023-01-05T22:45:00.612Z,100589.44
2023-01-05T22:47:26.823Z,100576.81
2023-01-05T22:49:53.055Z,100561.69
2023-01-05T22:52:19.264Z,100552.81
2023-01-05T22:54:45.494Z,100558.81
2023-01-05T22:57:11.705Z,100561.53
2023-01-05T22:59:37.908Z,100543.97
2023-01-05T23:02:04.144Z,100559.41
2023-01-05T23:04:30.379Z,100554.00
2023-01-05T23:06:56.604Z,100540.31
2023-01-05T23:09:22.823Z,100540.13
2023-01-05T23:11:49.038Z,100528.94
2023-01-05T23:14:15.257Z,100523.22
2023-01-05T23:16:41.515Z,100531.13
2023-01-05T23:19:07.826Z,100508.44
2023-01-05T23:21:34.027Z,100504.66
2023-01-05T23:24:00.243Z,100487.03
2023-01-05T23:26:26.543Z,100469.91
2023-01-05T23:28:52.766Z,100454.84
2023-01-05T23:31:19.013Z,100438.59
2023-01-05T23:33:45.525Z,100418.47
2023-01-05T23:36:12.149Z,100391.53
2023-01-05T23:38:38.356Z,100368.94
2023-01-05T23:41:05.035Z,100352.50
2023-01-05T23:43:31.225Z,100340.63
2023-01-05T23:46:05.158Z,100317.66
2023-01-05T23:48:31.425Z,100315.31
2023-01-05T23:50:57.677Z,100308.59
2023-01-05T23:53:24.274Z,100312.75
2023-01-05T23:55:50.533Z,100327.44
2023-01-05T23:58:16.736Z,100321.09
